Terminal Aerodrome Forecast
Issued by NWS King Salmon, AK

Home | Current Version | Previous Version | Text Only | Print | Product List | Glossary On
Versions: 1 2 3 4 5 6 7 8 9 10 11 12 13 14 15 16 17 18 19 20 21 22 23 24
000
FTAK31 PANC 281730
TAFAKN
TAF
PAKN 281730Z 2818/2918 18007KT 6SM -SHRA BR BKN006
     FM282000 17008KT P6SM -SHRA BKN010 OVC025
     FM290000 16008KT P6SM -SHRA SCT010 BKN025
     FM290900 14008KT P6SM VCSH SCT025 OVC050=

USA.gov is the U.S. government's official web portal to all federal, state and local government web resources and services.